sensor_id;sensor_type;location;lat;lon;timestamp;pressure;altitude;pressure_sealevel;temperature;humidity
53522;BME280;39398;48.382;9.802;2023-02-21T00:04:49;94247.13;;;8.27;51.32
53522;BME280;39398;48.382;9.802;2023-02-21T00:09:50;94248.78;;;8.20;51.68
53522;BME280;39398;48.382;9.802;2023-02-21T00:14:53;94241.09;;;7.94;51.47
53522;BME280;39398;48.382;9.802;2023-02-21T00:19:55;94241.13;;;7.78;52.61
53522;BME280;39398;48.382;9.802;2023-02-21T00:24:56;94234.44;;;7.67;51.23
53522;BME280;39398;48.382;9.802;2023-02-21T00:29:59;94233.59;;;7.75;50.78
53522;BME280;39398;48.382;9.802;2023-02-21T00:35:01;94224.56;;;7.53;51.28
53522;BME280;39398;48.382;9.802;2023-02-21T00:40:02;94219.97;;;7.46;50.83
53522;BME280;39398;48.382;9.802;2023-02-21T00:45:06;94222.28;;;7.58;51.24
53522;BME280;39398;48.382;9.802;2023-02-21T00:50:08;94223.44;;;7.47;52.06
53522;BME280;39398;48.382;9.802;2023-02-21T00:55:10;94221.28;;;7.42;50.37
53522;BME280;39398;48.382;9.802;2023-02-21T01:00:17;94214.88;;;7.20;53.26
53522;BME280;39398;48.382;9.802;2023-02-21T01:05:18;94222.13;;;7.18;53.39
53522;BME280;39398;48.382;9.802;2023-02-21T01:10:21;94220.16;;;7.12;52.48
53522;BME280;39398;48.382;9.802;2023-02-21T01:15:24;94218.66;;;7.02;50.59
53522;BME280;39398;48.382;9.802;2023-02-21T01:20:25;94198.50;;;7.02;50.89
53522;BME280;39398;48.382;9.802;2023-02-21T01:25:27;94196.84;;;7.09;50.77
53522;BME280;39398;48.382;9.802;2023-02-21T01:30:30;94201.28;;;6.92;51.14
53522;BME280;39398;48.382;9.802;2023-02-21T01:35:31;94197.81;;;6.84;50.74
53522;BME280;39398;48.382;9.802;2023-02-21T01:40:33;94190.56;;;6.86;50.73
53522;BME280;39398;48.382;9.802;2023-02-21T01:45:42;94193.53;;;6.74;50.35
53522;BME280;39398;48.382;9.802;2023-02-21T01:50:46;94186.81;;;6.88;50.34
53522;BME280;39398;48.382;9.802;2023-02-21T01:55:48;94183.72;;;6.93;51.58
53522;BME280;39398;48.382;9.802;2023-02-21T02:00:51;94179.09;;;6.95;50.65
53522;BME280;39398;48.382;9.802;2023-02-21T02:05:55;94179.59;;;6.82;49.79
53522;BME280;39398;48.382;9.802;2023-02-21T02:11:03;94171.06;;;6.88;50.46
53522;BME280;39398;48.382;9.802;2023-02-21T02:16:15;94169.59;;;6.78;51.31
53522;BME280;39398;48.382;9.802;2023-02-21T02:27:19;94159.75;;;6.88;50.24
53522;BME280;39398;48.382;9.802;2023-02-21T02:32:51;94154.50;;;6.71;51.07
53522;BME280;39398;48.382;9.802;2023-02-21T02:38:05;94148.44;;;6.71;51.04
53522;BME280;39398;48.382;9.802;2023-02-21T02:43:14;94150.56;;;6.75;50.80
53522;BME280;39398;48.382;9.802;2023-02-21T02:48:21;94143.34;;;6.78;51.35
53522;BME280;39398;48.382;9.802;2023-02-21T02:53:27;94146.13;;;6.76;52.04
53522;BME280;39398;48.382;9.802;2023-02-21T02:58:32;94146.28;;;6.66;51.38
53522;BME280;39398;48.382;9.802;2023-02-21T03:03:57;94141.53;;;6.70;52.25
53522;BME280;39398;48.382;9.802;2023-02-21T03:09:11;94144.66;;;6.65;51.58
53522;BME280;39398;48.382;9.802;2023-02-21T03:14:15;94139.84;;;6.44;52.08
53522;BME280;39398;48.382;9.802;2023-02-21T03:19:19;94147.22;;;6.41;53.69
53522;BME280;39398;48.382;9.802;2023-02-21T03:24:25;94140.50;;;6.46;52.39
53522;BME280;39398;48.382;9.802;2023-02-21T03:29:28;94137.22;;;6.44;53.27
53522;BME280;39398;48.382;9.802;2023-02-21T03:34:30;94132.66;;;6.38;52.37
53522;BME280;39398;48.382;9.802;2023-02-21T03:39:33;94136.25;;;6.45;52.98
53522;BME280;39398;48.382;9.802;2023-02-21T03:44:34;94137.03;;;6.38;52.12
53522;BME280;39398;48.382;9.802;2023-02-21T03:49:36;94137.53;;;6.33;51.83
53522;BME280;39398;48.382;9.802;2023-02-21T03:54:39;94141.78;;;6.34;51.82
53522;BME280;39398;48.382;9.802;2023-02-21T03:59:41;94142.13;;;6.31;53.77
53522;BME280;39398;48.382;9.802;2023-02-21T04:04:42;94138.03;;;6.37;51.75
53522;BME280;39398;48.382;9.802;2023-02-21T04:09:45;94140.66;;;6.37;51.58
53522;BME280;39398;48.382;9.802;2023-02-21T04:14:47;94132.97;;;6.35;54.20
53522;BME280;39398;48.382;9.802;2023-02-21T04:19:49;94129.81;;;6.23;52.35
53522;BME280;39398;48.382;9.802;2023-02-21T04:24:51;94131.13;;;6.27;52.38
53522;BME280;39398;48.382;9.802;2023-02-21T04:29:53;94131.44;;;6.24;53.30
53522;BME280;39398;48.382;9.802;2023-02-21T04:34:55;94131.81;;;6.29;53.30
53522;BME280;39398;48.382;9.802;2023-02-21T04:39:57;94132.44;;;6.23;53.82
53522;BME280;39398;48.382;9.802;2023-02-21T04:44:59;94145.06;;;6.20;56.06
53522;BME280;39398;48.382;9.802;2023-02-21T04:50:01;94132.72;;;6.04;54.56
53522;BME280;39398;48.382;9.802;2023-02-21T04:55:05;94136.47;;;6.01;54.36
53522;BME280;39398;48.382;9.802;2023-02-21T05:00:07;94124.91;;;6.20;55.29
53522;BME280;39398;48.382;9.802;2023-02-21T05:05:09;94124.03;;;6.03;55.99
53522;BME280;39398;48.382;9.802;2023-02-21T05:10:13;94114.72;;;6.17;57.15
53522;BME280;39398;48.382;9.802;2023-02-21T05:15:15;94122.84;;;5.98;57.77
53522;BME280;39398;48.382;9.802;2023-02-21T05:20:17;94119.75;;;5.94;57.12
53522;BME280;39398;48.382;9.802;2023-02-21T05:25:21;94118.16;;;5.83;55.96
53522;BME280;39398;48.382;9.802;2023-02-21T05:30:23;94117.00;;;6.12;57.51
53522;BME280;39398;48.382;9.802;2023-02-21T05:35:25;94128.19;;;6.22;56.13
53522;BME280;39398;48.382;9.802;2023-02-21T05:40:28;94119.47;;;6.22;56.21
53522;BME280;39398;48.382;9.802;2023-02-21T05:45:29;94123.41;;;6.10;57.49
53522;BME280;39398;48.382;9.802;2023-02-21T05:50:31;94122.22;;;6.04;56.54
53522;BME280;39398;48.382;9.802;2023-02-21T05:55:34;94125.34;;;6.08;58.53
53522;BME280;39398;48.382;9.802;2023-02-21T06:00:36;94128.97;;;5.80;57.44
53522;BME280;39398;48.382;9.802;2023-02-21T06:05:37;94128.41;;;5.95;56.69
53522;BME280;39398;48.382;9.802;2023-02-21T06:10:40;94128.41;;;5.95;56.76
53522;BME280;39398;48.382;9.802;2023-02-21T06:15:42;94124.59;;;5.89;56.99
53522;BME280;39398;48.382;9.802;2023-02-21T06:20:43;94119.03;;;5.84;56.92
53522;BME280;39398;48.382;9.802;2023-02-21T06:25:46;94129.50;;;5.92;57.39
53522;BME280;39398;48.382;9.802;2023-02-21T06:30:48;94123.84;;;5.71;57.81
53522;BME280;39398;48.382;9.802;2023-02-21T06:35:50;94129.91;;;5.97;58.71
53522;BME280;39398;48.382;9.802;2023-02-21T06:40:53;94132.66;;;5.96;58.81
53522;BME280;39398;48.382;9.802;2023-02-21T06:45:54;94135.50;;;6.11;58.05
53522;BME280;39398;48.382;9.802;2023-02-21T06:50:56;94134.69;;;6.10;57.64
53522;BME280;39398;48.382;9.802;2023-02-21T06:55:59;94136.38;;;6.19;59.63
53522;BME280;39398;48.382;9.802;2023-02-21T07:01:01;94128.38;;;6.37;58.40
53522;BME280;39398;48.382;9.802;2023-02-21T07:06:02;94117.41;;;6.42;58.22
53522;BME280;39398;48.382;9.802;2023-02-21T07:11:06;94133.31;;;6.57;58.27
53522;BME280;39398;48.382;9.802;2023-02-21T07:16:07;94128.25;;;6.71;57.79
53522;BME280;39398;48.382;9.802;2023-02-21T07:21:09;94135.97;;;6.81;57.20
53522;BME280;39398;48.382;9.802;2023-02-21T07:26:13;94135.16;;;6.97;56.05
53522;BME280;39398;48.382;9.802;2023-02-21T07:31:15;94140.06;;;7.25;56.18
53522;BME280;39398;48.382;9.802;2023-02-21T07:36:19;94139.09;;;7.09;55.61
53522;BME280;39398;48.382;9.802;2023-02-21T07:41:22;94144.75;;;7.62;54.71
53522;BME280;39398;48.382;9.802;2023-02-21T07:46:26;94137.66;;;7.79;53.77
53522;BME280;39398;48.382;9.802;2023-02-21T07:51:28;94145.50;;;7.95;54.38
53522;BME280;39398;48.382;9.802;2023-02-21T07:56:32;94142.75;;;8.59;51.76
53522;BME280;39398;48.382;9.802;2023-02-21T08:01:33;94141.47;;;9.01;52.03
53522;BME280;39398;48.382;9.802;2023-02-21T08:06:35;94142.66;;;9.36;50.26
53522;BME280;39398;48.382;9.802;2023-02-21T08:11:38;94134.53;;;9.61;49.96
53522;BME280;39398;48.382;9.802;2023-02-21T08:16:40;94139.28;;;9.80;49.49
53522;BME280;39398;48.382;9.802;2023-02-21T08:21:43;94146.91;;;10.19;48.52
53522;BME280;39398;48.382;9.802;2023-02-21T08:26:47;94153.75;;;10.29;48.59
53522;BME280;39398;48.382;9.802;2023-02-21T08:31:49;94152.38;;;10.33;47.41
53522;BME280;39398;48.382;9.802;2023-02-21T08:36:50;94138.06;;;10.78;47.25
53522;BME280;39398;48.382;9.802;2023-02-21T08:41:53;94136.00;;;10.95;46.27
53522;BME280;39398;48.382;9.802;2023-02-21T08:46:55;94140.66;;;11.14;46.26
53522;BME280;39398;48.382;9.802;2023-02-21T08:51:57;94139.75;;;11.29;46.68
53522;BME280;39398;48.382;9.802;2023-02-21T08:57:00;94141.50;;;11.43;45.42
53522;BME280;39398;48.382;9.802;2023-02-21T09:02:01;94140.97;;;11.82;45.17
53522;BME280;39398;48.382;9.802;2023-02-21T09:07:03;94150.31;;;12.06;45.80
53522;BME280;39398;48.382;9.802;2023-02-21T09:12:07;94146.72;;;12.21;45.25
53522;BME280;39398;48.382;9.802;2023-02-21T09:17:11;94146.69;;;12.14;44.50
53522;BME280;39398;48.382;9.802;2023-02-21T09:22:13;94147.00;;;12.32;44.53
53522;BME280;39398;48.382;9.802;2023-02-21T09:27:16;94147.50;;;12.56;44.48
53522;BME280;39398;48.382;9.802;2023-02-21T09:32:17;94142.91;;;12.91;43.48
53522;BME280;39398;48.382;9.802;2023-02-21T09:37:19;94141.31;;;13.10;43.85
53522;BME280;39398;48.382;9.802;2023-02-21T09:42:26;94137.72;;;13.44;42.30
53522;BME280;39398;48.382;9.802;2023-02-21T09:47:32;94133.22;;;13.85;42.13
53522;BME280;39398;48.382;9.802;2023-02-21T09:52:37;94134.84;;;13.46;40.86
53522;BME280;39398;48.382;9.802;2023-02-21T09:57:40;94134.66;;;13.61;41.63
53522;BME280;39398;48.382;9.802;2023-02-21T10:02:50;94138.72;;;13.90;40.80
53522;BME280;39398;48.382;9.802;2023-02-21T10:07:58;94132.81;;;13.81;40.29
53522;BME280;39398;48.382;9.802;2023-02-21T10:13:10;94138.44;;;14.25;43.08
53522;BME280;39398;48.382;9.802;2023-02-21T10:18:23;94145.63;;;14.11;45.90
53522;BME280;39398;48.382;9.802;2023-02-21T10:23:28;94148.13;;;13.39;48.18
53522;BME280;39398;48.382;9.802;2023-02-21T10:28:35;94138.53;;;13.38;48.63
53522;BME280;39398;48.382;9.802;2023-02-21T10:33:38;94136.00;;;12.97;50.70
53522;BME280;39398;48.382;9.802;2023-02-21T10:38:42;94145.19;;;13.14;51.45
53522;BME280;39398;48.382;9.802;2023-02-21T10:43:51;94142.50;;;12.94;53.27
53522;BME280;39398;48.382;9.802;2023-02-21T10:49:16;94138.22;;;12.87;51.90
53522;BME280;39398;48.382;9.802;2023-02-21T10:54:21;94135.06;;;13.31;50.60
53522;BME280;39398;48.382;9.802;2023-02-21T10:59:27;94128.47;;;13.14;52.30
53522;BME280;39398;48.382;9.802;2023-02-21T11:04:31;94127.66;;;13.07;54.28
53522;BME280;39398;48.382;9.802;2023-02-21T11:09:36;94119.78;;;13.46;48.42
53522;BME280;39398;48.382;9.802;2023-02-21T11:14:39;94114.84;;;13.77;46.33
53522;BME280;39398;48.382;9.802;2023-02-21T11:19:46;94105.66;;;13.19;52.60
53522;BME280;39398;48.382;9.802;2023-02-21T11:24:52;94096.50;;;13.09;50.51
53522;BME280;39398;48.382;9.802;2023-02-21T11:29:58;94078.94;;;13.67;44.98
53522;BME280;39398;48.382;9.802;2023-02-21T11:35:05;94080.97;;;13.79;43.26
53522;BME280;39398;48.382;9.802;2023-02-21T11:40:21;94073.22;;;13.77;46.09
53522;BME280;39398;48.382;9.802;2023-02-21T11:45:27;94073.22;;;13.70;46.38
53522;BME280;39398;48.382;9.802;2023-02-21T11:50:34;94062.59;;;13.84;42.27
53522;BME280;39398;48.382;9.802;2023-02-21T11:55:38;94060.34;;;13.81;44.43
53522;BME280;39398;48.382;9.802;2023-02-21T12:00:48;94057.69;;;13.87;43.90
53522;BME280;39398;48.382;9.802;2023-02-21T12:05:57;94047.25;;;13.99;42.53
53522;BME280;39398;48.382;9.802;2023-02-21T12:11:14;94040.69;;;14.02;42.33
53522;BME280;39398;48.382;9.802;2023-02-21T12:16:25;94037.03;;;13.96;46.34
53522;BME280;39398;48.382;9.802;2023-02-21T12:21:49;94018.81;;;14.06;47.51
53522;BME280;39398;48.382;9.802;2023-02-21T12:26:55;94011.94;;;13.99;45.08
53522;BME280;39398;48.382;9.802;2023-02-21T12:32:18;94007.19;;;14.07;43.69
53522;BME280;39398;48.382;9.802;2023-02-21T12:37:30;93996.31;;;14.15;46.21
53522;BME280;39398;48.382;9.802;2023-02-21T12:43:18;93989.97;;;14.16;48.43
53522;BME280;39398;48.382;9.802;2023-02-21T12:48:29;93977.88;;;13.89;46.29
53522;BME280;39398;48.382;9.802;2023-02-21T12:53:35;93970.19;;;14.12;46.69
53522;BME280;39398;48.382;9.802;2023-02-21T12:58:40;93964.88;;;14.12;45.70
53522;BME280;39398;48.382;9.802;2023-02-21T13:03:55;93948.84;;;14.39;47.59
53522;BME280;39398;48.382;9.802;2023-02-21T13:09:12;93946.13;;;14.46;44.70
53522;BME280;39398;48.382;9.802;2023-02-21T13:14:17;93937.03;;;14.28;42.13
53522;BME280;39398;48.382;9.802;2023-02-21T13:19:23;93933.53;;;14.66;41.39
53522;BME280;39398;48.382;9.802;2023-02-21T13:24:42;93927.09;;;14.55;43.44
53522;BME280;39398;48.382;9.802;2023-02-21T13:29:45;93916.72;;;14.40;43.91
53522;BME280;39398;48.382;9.802;2023-02-21T13:34:53;93917.28;;;14.56;43.87
53522;BME280;39398;48.382;9.802;2023-02-21T13:39:57;93908.94;;;14.46;41.63
53522;BME280;39398;48.382;9.802;2023-02-21T13:45:13;93900.75;;;14.47;41.45
53522;BME280;39398;48.382;9.802;2023-02-21T13:50:45;93895.91;;;14.69;42.73
53522;BME280;39398;48.382;9.802;2023-02-21T14:01:47;93874.72;;;14.62;40.97
53522;BME280;39398;48.382;9.802;2023-02-21T14:06:55;93875.56;;;14.56;42.21
53522;BME280;39398;48.382;9.802;2023-02-21T14:12:01;93867.59;;;14.56;40.79
53522;BME280;39398;48.382;9.802;2023-02-21T14:17:05;93862.56;;;14.41;39.91
53522;BME280;39398;48.382;9.802;2023-02-21T14:22:12;93859.09;;;14.73;40.64
53522;BME280;39398;48.382;9.802;2023-02-21T14:27:33;93856.22;;;14.93;42.16
53522;BME280;39398;48.382;9.802;2023-02-21T14:32:36;93854.69;;;14.85;40.42
53522;BME280;39398;48.382;9.802;2023-02-21T14:37:41;93845.47;;;14.87;41.94
53522;BME280;39398;48.382;9.802;2023-02-21T14:42:53;93848.06;;;15.13;41.78
53522;BME280;39398;48.382;9.802;2023-02-21T14:54:03;93838.91;;;14.90;43.89
53522;BME280;39398;48.382;9.802;2023-02-21T14:59:44;93837.38;;;14.76;44.88
53522;BME280;39398;48.382;9.802;2023-02-21T15:04:56;93830.19;;;15.01;43.34
53522;BME280;39398;48.382;9.802;2023-02-21T15:10:10;93823.94;;;14.71;44.46
53522;BME280;39398;48.382;9.802;2023-02-21T15:15:18;93821.28;;;14.71;43.88
53522;BME280;39398;48.382;9.802;2023-02-21T15:20:20;93815.31;;;14.75;44.30
53522;BME280;39398;48.382;9.802;2023-02-21T15:25:24;93815.81;;;14.65;44.18
53522;BME280;39398;48.382;9.802;2023-02-21T15:30:28;93819.78;;;14.56;44.97
53522;BME280;39398;48.382;9.802;2023-02-21T15:35:32;93812.25;;;14.53;46.52
53522;BME280;39398;48.382;9.802;2023-02-21T15:40:37;93814.31;;;14.51;46.21
53522;BME280;39398;48.382;9.802;2023-02-21T15:45:43;93815.72;;;14.54;45.35
53522;BME280;39398;48.382;9.802;2023-02-21T15:50:45;93812.13;;;14.41;46.55
53522;BME280;39398;48.382;9.802;2023-02-21T15:55:49;93810.72;;;14.39;46.75
53522;BME280;39398;48.382;9.802;2023-02-21T16:01:03;93804.47;;;14.58;45.89
53522;BME280;39398;48.382;9.802;2023-02-21T16:06:21;93810.88;;;14.44;45.65
53522;BME280;39398;48.382;9.802;2023-02-21T16:11:36;93804.81;;;14.37;45.82
53522;BME280;39398;48.382;9.802;2023-02-21T16:16:38;93799.28;;;14.38;45.96
53522;BME280;39398;48.382;9.802;2023-02-21T16:21:40;93785.56;;;14.41;46.17
53522;BME280;39398;48.382;9.802;2023-02-21T16:27:00;93787.22;;;14.17;47.07
53522;BME280;39398;48.382;9.802;2023-02-21T16:32:02;93778.91;;;14.07;47.32
53522;BME280;39398;48.382;9.802;2023-02-21T16:37:07;93785.72;;;13.96;47.45
53522;BME280;39398;48.382;9.802;2023-02-21T16:42:12;93786.16;;;13.93;47.82
53522;BME280;39398;48.382;9.802;2023-02-21T16:47:15;93783.28;;;13.95;47.69
53522;BME280;39398;48.382;9.802;2023-02-21T16:52:16;93774.66;;;13.75;47.11
53522;BME280;39398;48.382;9.802;2023-02-21T16:57:19;93774.31;;;13.64;47.01
53522;BME280;39398;48.382;9.802;2023-02-21T17:02:21;93780.34;;;13.46;46.52
53522;BME280;39398;48.382;9.802;2023-02-21T17:07:23;93774.25;;;13.39;46.22
53522;BME280;39398;48.382;9.802;2023-02-21T17:12:27;93774.84;;;13.41;46.47
53522;BME280;39398;48.382;9.802;2023-02-21T17:17:28;93775.28;;;13.38;46.14
53522;BME280;39398;48.382;9.802;2023-02-21T17:22:30;93780.78;;;13.37;45.78
53522;BME280;39398;48.382;9.802;2023-02-21T17:27:33;93777.97;;;13.32;45.21
53522;BME280;39398;48.382;9.802;2023-02-21T17:32:34;93782.06;;;13.21;44.71
53522;BME280;39398;48.382;9.802;2023-02-21T17:37:36;93782.06;;;13.28;44.18
53522;BME280;39398;48.382;9.802;2023-02-21T17:42:39;93784.09;;;13.25;43.66
53522;BME280;39398;48.382;9.802;2023-02-21T17:47:41;93786.72;;;13.32;43.42
53522;BME280;39398;48.382;9.802;2023-02-21T17:52:42;93790.03;;;13.14;43.79
53522;BME280;39398;48.382;9.802;2023-02-21T17:57:46;93786.16;;;13.17;44.34
53522;BME280;39398;48.382;9.802;2023-02-21T18:02:47;93791.09;;;13.07;44.67
53522;BME280;39398;48.382;9.802;2023-02-21T18:07:50;93786.00;;;13.05;44.23
53522;BME280;39398;48.382;9.802;2023-02-21T18:12:54;93781.84;;;13.29;43.28
53522;BME280;39398;48.382;9.802;2023-02-21T18:17:56;93782.13;;;13.01;45.03
53522;BME280;39398;48.382;9.802;2023-02-21T18:22:57;93774.44;;;12.93;44.71
53522;BME280;39398;48.382;9.802;2023-02-21T18:28:00;93773.84;;;12.84;44.88
53522;BME280;39398;48.382;9.802;2023-02-21T18:33:02;93776.47;;;12.91;45.04
53522;BME280;39398;48.382;9.802;2023-02-21T18:38:04;93778.50;;;12.89;44.90
53522;BME280;39398;48.382;9.802;2023-02-21T18:43:15;93775.53;;;12.65;44.99
53522;BME280;39398;48.382;9.802;2023-02-21T18:48:17;93772.34;;;11.97;49.11
53522;BME280;39398;48.382;9.802;2023-02-21T18:53:20;93772.69;;;11.60;50.68
53522;BME280;39398;48.382;9.802;2023-02-21T18:58:23;93773.91;;;11.58;50.93
53522;BME280;39398;48.382;9.802;2023-02-21T19:03:24;93771.72;;;11.88;50.57
53522;BME280;39398;48.382;9.802;2023-02-21T19:08:26;93776.22;;;12.01;48.58
53522;BME280;39398;48.382;9.802;2023-02-21T19:13:29;93783.13;;;12.08;49.39
53522;BME280;39398;48.382;9.802;2023-02-21T19:18:30;93785.59;;;12.03;50.10
53522;BME280;39398;48.382;9.802;2023-02-21T19:23:32;93782.94;;;12.10;50.19
53522;BME280;39398;48.382;9.802;2023-02-21T19:28:35;93777.22;;;11.93;51.43
53522;BME280;39398;48.382;9.802;2023-02-21T19:33:37;93779.44;;;11.90;51.80
53522;BME280;39398;48.382;9.802;2023-02-21T19:38:38;93776.41;;;11.86;51.75
53522;BME280;39398;48.382;9.802;2023-02-21T19:43:41;93776.41;;;11.86;52.25
53522;BME280;39398;48.382;9.802;2023-02-21T19:48:43;93781.25;;;11.82;51.73
53522;BME280;39398;48.382;9.802;2023-02-21T19:53:45;93783.53;;;11.85;51.96
53522;BME280;39398;48.382;9.802;2023-02-21T19:58:48;93780.63;;;11.74;53.16
53522;BME280;39398;48.382;9.802;2023-02-21T20:03:49;93775.75;;;11.64;53.28
53522;BME280;39398;48.382;9.802;2023-02-21T20:08:51;93780.63;;;11.67;53.51
53522;BME280;39398;48.382;9.802;2023-02-21T20:13:54;93780.22;;;11.70;53.06
53522;BME280;39398;48.382;9.802;2023-02-21T20:18:56;93786.91;;;11.53;54.59
53522;BME280;39398;48.382;9.802;2023-02-21T20:23:57;93784.28;;;11.53;54.90
53522;BME280;39398;48.382;9.802;2023-02-21T20:29:01;93782.66;;;11.58;54.52
53522;BME280;39398;48.382;9.802;2023-02-21T20:34:03;93785.50;;;11.63;54.00
53522;BME280;39398;48.382;9.802;2023-02-21T20:39:06;93778.34;;;11.44;54.86
53522;BME280;39398;48.382;9.802;2023-02-21T20:44:09;93787.06;;;11.31;56.39
53522;BME280;39398;48.382;9.802;2023-02-21T20:49:11;93778.56;;;11.36;55.63
53522;BME280;39398;48.382;9.802;2023-02-21T20:54:14;93777.09;;;11.27;56.26
53522;BME280;39398;48.382;9.802;2023-02-21T20:59:19;93769.97;;;11.21;57.42
53522;BME280;39398;48.382;9.802;2023-02-21T21:04:24;93777.47;;;11.17;57.93
53522;BME280;39398;48.382;9.802;2023-02-21T21:09:26;93760.97;;;11.08;57.55
53522;BME280;39398;48.382;9.802;2023-02-21T21:14:30;93766.50;;;11.20;56.70
53522;BME280;39398;48.382;9.802;2023-02-21T21:19:32;93763.69;;;11.28;56.12
53522;BME280;39398;48.382;9.802;2023-02-21T21:24:35;93762.63;;;11.16;56.58
53522;BME280;39398;48.382;9.802;2023-02-21T21:29:39;93764.03;;;11.12;56.74
53522;BME280;39398;48.382;9.802;2023-02-21T21:34:42;93764.47;;;11.22;55.87
53522;BME280;39398;48.382;9.802;2023-02-21T21:39:45;93758.34;;;11.15;56.26
53522;BME280;39398;48.382;9.802;2023-02-21T21:44:48;93755.25;;;10.91;56.89
53522;BME280;39398;48.382;9.802;2023-02-21T21:49:50;93757.59;;;9.82;61.38
53522;BME280;39398;48.382;9.802;2023-02-21T21:54:51;93752.47;;;10.30;59.67
53522;BME280;39398;48.382;9.802;2023-02-21T21:59:54;93745.06;;;10.40;59.33
53522;BME280;39398;48.382;9.802;2023-02-21T22:04:56;93755.16;;;9.81;61.37
53522;BME280;39398;48.382;9.802;2023-02-21T22:09:57;93743.25;;;9.91;61.00
53522;BME280;39398;48.382;9.802;2023-02-21T22:15:00;93746.34;;;9.67;62.72
53522;BME280;39398;48.382;9.802;2023-02-21T22:20:03;93738.66;;;9.50;63.64
53522;BME280;39398;48.382;9.802;2023-02-21T22:25:05;93733.84;;;9.11;65.41
53522;BME280;39398;48.382;9.802;2023-02-21T22:30:10;93736.72;;;9.38;64.69
53522;BME280;39398;48.382;9.802;2023-02-21T22:35:13;93733.38;;;9.22;65.42
53522;BME280;39398;48.382;9.802;2023-02-21T22:40:16;93727.38;;;9.14;66.09
53522;BME280;39398;48.382;9.802;2023-02-21T22:45:21;93716.66;;;8.94;67.11
53522;BME280;39398;48.382;9.802;2023-02-21T22:50:23;93719.84;;;8.89;67.94
53522;BME280;39398;48.382;9.802;2023-02-21T22:55:26;93719.72;;;8.97;68.02
53522;BME280;39398;48.382;9.802;2023-02-21T23:00:31;93715.66;;;9.38;65.33
53522;BME280;39398;48.382;9.802;2023-02-21T23:05:33;93720.84;;;9.52;65.16
53522;BME280;39398;48.382;9.802;2023-02-21T23:10:34;93722.47;;;9.53;65.58
53522;BME280;39398;48.382;9.802;2023-02-21T23:15:37;93713.91;;;9.73;64.49
53522;BME280;39398;48.382;9.802;2023-02-21T23:20:39;93712.94;;;9.74;64.13
53522;BME280;39398;48.382;9.802;2023-02-21T23:25:41;93710.91;;;9.26;67.89
53522;BME280;39398;48.382;9.802;2023-02-21T23:30:44;93705.88;;;9.31;67.52
53522;BME280;39398;48.382;9.802;2023-02-21T23:35:47;93703.38;;;9.45;67.26
53522;BME280;39398;48.382;9.802;2023-02-21T23:40:50;93706.81;;;9.45;67.57
53522;BME280;39398;48.382;9.802;2023-02-21T23:45:54;93703.81;;;9.48;67.85
53522;BME280;39398;48.382;9.802;2023-02-21T23:50:57;93700.59;;;9.53;66.75
53522;BME280;39398;48.382;9.802;2023-02-21T23:55:58;93694.34;;;9.11;69.98
